Date,TemperatureHighF,TemperatureAvgF,TemperatureLowF,DewpointHighF,DewpointAvgF,DewpointLowF,HumidityHigh,HumidityAvg,HumidityLow,PressureMaxIn,PressureMinIn,WindSpeedMaxMPH,WindSpeedAvgMPH,GustSpeedMaxMPH,PrecipitationSumIn
2013-1-1,34,25,16,40,37,34,34,33,32,29.78,29.60,11,0,11,0.04
2013-1-2,31,21,11,39,36,31,34,33,32,29.78,29.69,0,0,0,0.00
2013-1-3,42,27,15,39,36,30,34,33,32,29.90,29.72,8,1,10,0.08
2013-1-4,43,30,20,39,36,30,34,33,32,29.93,29.81,8,1,8,0.00
2013-1-5,45,35,22,40,37,31,33,33,32,29.81,29.60,8,1,8,0.00
2013-1-6,42,34,21,39,37,34,34,33,31,29.90,29.57,14,3,14,0.00
2013-1-7,46,31,17,40,36,30,34,33,31,29.90,29.66,11,2,11,0.00
2013-1-8,56,41,24,39,37,33,34,33,33,29.72,29.60,11,2,12,0.00
2013-1-9,58,48,36,39,37,35,35,34,34,29.96,29.66,9,2,9,0.00
2013-1-10,60,48,42,40,38,35,36,34,34,29.96,29.28,11,3,12,0.62
2013-1-11,65,57,51,43,41,38,39,37,35,29.39,29.28,12,4,12,0.00
2013-1-12,61,50,33,43,41,40,39,38,36,29.45,29.31,15,4,15,1.28
2013-1-13,33,27,19,40,38,35,36,34,33,29.87,29.39,0,0,0,0.00
2013-1-14,28,21,16,38,36,31,34,33,32,30.01,29.87,0,0,0,0.00
2013-1-15,30,24,16,38,36,30,34,33,32,29.93,29.63,0,0,0,0.00
2013-1-16,46,31,17,40,36,31,34,33,32,29.66,29.51,6,1,7,0.00
2013-1-17,43,34,23,39,36,32,34,33,32,29.99,29.63,12,3,15,0.00
2013-1-18,56,37,20,40,36,30,34,33,32,29.99,29.63,11,3,11,0.00
2013-1-19,68,52,40,39,38,35,34,33,32,29.66,29.39,14,4,14,0.00
2013-1-20,49,34,27,38,37,33,34,33,32,29.84,29.63,11,4,13,0.00
2013-1-21,29,22,16,38,36,30,34,33,32,29.90,29.78,15,5,16,0.00
2013-1-22,20,17,14,38,36,28,34,32,31,29.99,29.87,8,2,8,0.00
2013-1-23,44,28,15,39,36,29,33,33,31,29.87,29.63,12,2,13,0.00
2013-1-24,30,24,16,39,36,30,34,33,32,30.07,29.72,13,5,14,0.00
2013-1-25,46,35,28,39,36,30,33,32,31,29.75,29.60,10,2,11,0.00
2013-1-26,40,32,26,38,36,31,33,32,31,29.90,29.72,9,2,10,0.00
2013-1-27,54,38,29,39,37,31,34,33,32,29.81,29.45,15,3,15,0.08
2013-1-28,72,62,54,53,43,36,54,40,33,29.48,29.36,11,4,11,0.00
2013-1-29,69,63,54,53,49,48,54,49,48,29.36,28.95,16,5,16,2.32
2013-1-30,54,41,29,48,44,41,48,43,36,29.42,28.89,15,5,22,0.08
2013-1-31,36,27,13,41,38,35,37,35,33,29.87,29.42,17,5,17,0.00
2013-2-1,30,20,9,39,36,31,35,34,33,30.01,29.75,11,3,16,0.00
2013-2-2,46,35,29,40,37,33,34,33,33,29.75,29.57,13,4,13,0.00
2013-2-3,36,31,26,39,37,33,34,33,32,29.69,29.51,15,2,16,0.04
2013-2-4,62,41,28,40,37,32,36,34,32,29.51,29.25,13,4,13,0.04
2013-2-5,60,38,24,40,37,32,35,34,33,29.63,29.39,11,2,12,0.00
2013-2-6,52,40,24,40,37,33,34,34,33,29.75,29.54,11,2,11,0.00
2013-2-7,58,45,34,41,38,34,35,34,33,29.54,29.34,15,2,15,0.04
2013-2-8,41,36,31,40,38,34,35,34,33,29.87,29.54,15,5,15,0.00
2013-2-9,42,36,31,40,38,33,34,33,33,29.87,29.51,12,3,12,0.17
2013-2-10,57,48,38,40,38,35,36,34,33,29.51,29.10,15,5,17,0.79
2013-2-11,52,43,29,40,38,34,36,35,34,29.63,29.25,15,4,17,0.00
2013-2-12,47,37,24,40,37,32,35,34,33,29.66,29.42,6,0,6,0.00
2013-2-13,57,45,37,40,38,34,35,34,33,29.42,29.31,11,2,11,0.00
2013-2-14,58,46,35,41,38,34,37,34,33,29.54,29.31,10,2,11,0.00
2013-2-15,42,36,27,40,37,34,36,34,32,29.78,29.54,15,4,15,0.00
2013-2-16,38,29,20,39,36,31,34,33,32,30.01,29.69,15,3,15,0.00
2013-2-17,49,36,18,39,36,30,34,33,31,30.28,29.51,15,3,15,0.00
2013-2-18,57,47,35,40,38,34,35,34,33,29.96,29.25,17,6,18,0.04
2013-2-19,38,32,24,39,37,33,36,34,33,30.64,29.57,14,4,16,0.00
2013-2-20,28,24,20,38,36,30,34,33,32,31.02,30.49,9,3,9,0.00
2013-2-21,33,27,20,39,36,30,33,32,31,31.02,30.34,23,4,23,0.00
2013-2-22,38,32,21,40,37,34,34,33,32,31.02,30.52,11,2,11,0.25
2013-2-23,38,27,15,38,36,32,33,33,31,31.02,30.90,6,1,6,0.17
2013-2-24,45,32,17,40,37,32,34,33,32,31.02,31.02,10,1,10,0.00
2013-2-25,47,39,28,39,37,32,34,33,33,31.02,31.02,17,4,17,0.29
2013-2-26,47,39,35,39,37,33,34,33,33,31.02,31.02,15,4,15,0.62
2013-2-27,37,34,33,40,37,33,34,33,32,31.02,29.19,11,4,11,0.04
2013-2-28,36,34,33,39,37,33,34,33,32,29.60,29.39,11,4,13,0.00
2013-3-1,35,32,30,39,37,33,34,33,32,29.69,29.57,11,4,12,0.04
2013-3-2,35,30,23,38,36,31,34,32,32,29.75,29.69,14,4,14,0.00
2013-3-3,42,31,16,39,37,30,33,32,31,29.72,29.54,9,1,9,0.00
2013-3-4,53,44,36,40,38,33,34,33,32,29.54,29.28,15,4,17,0.00
2013-3-5,45,37,32,39,37,35,34,33,32,29.63,29.31,17,5,19,0.21
2013-3-6,40,34,24,39,36,30,33,32,31,29.87,29.63,17,5,17,0.00
2013-3-7,46,35,21,40,36,29,33,33,31,29.93,29.81,9,2,11,0.00
2013-3-8,54,42,28,39,37,32,34,33,32,29.93,29.72,13,3,13,0.00
2013-3-9,68,53,42,40,38,35,34,33,32,29.72,29.31,15,4,17,0.13
2013-3-10,60,55,47,42,39,37,36,34,33,29.31,29.16,11,3,13,0.99
2013-3-11,47,37,34,40,38,36,36,34,33,29.51,29.25,13,4,13,0.00
2013-3-12,53,39,30,39,37,33,35,34,33,29.72,29.51,17,4,17,0.00
2013-3-13,42,34,26,39,36,32,34,33,33,29.93,29.72,15,5,15,0.00
2013-3-14,52,37,24,40,36,30,34,33,32,29.90,29.60,11,2,11,0.00
2013-3-15,72,51,29,41,38,33,34,33,33,29.60,29.19,9,1,9,0.00
2013-3-16,66,49,40,41,39,37,35,34,34,29.54,29.16,17,4,17,0.00
2013-3-17,40,36,34,40,38,34,35,34,33,29.60,29.39,13,4,13,0.00
2013-3-20,32,29,25,38,37,36,16,15,15,30.15,29.66,10,2,10,0.00
2013-3-21,39,30,21,38,36,28,17,15,14,30.12,30.01,9,3,9,0.00
2013-3-22,42,37,32,39,37,32,15,14,13,30.06,29.98,10,2,10,0.00
2013-3-23,53,45,38,40,38,34,14,12,11,30.04,29.83,11,3,12,0.00
2013-3-24,45,34,32,39,38,36,66,48,13,29.86,29.56,17,3,17,0.04
2013-3-25,38,33,30,39,37,33,67,33,14,30.18,29.83,12,3,12,0.33
2013-3-26,43,35,27,40,37,32,16,14,13,30.36,30.18,10,3,11,0.00
2013-3-27,50,36,21,39,36,30,32,16,11,30.39,30.30,8,1,8,0.00
2013-3-28,57,47,37,40,38,34,14,12,9,30.36,30.21,13,3,13,0.00
2013-3-29,63,52,43,42,40,36,29,15,8,30.24,30.18,9,2,10,0.00
2013-3-30,55,47,37,43,40,36,48,31,10,30.21,29.92,11,2,11,0.21
2013-3-31,69,57,48,43,40,37,58,28,7,29.95,29.86,10,2,11,0.00
2013-4-1,53,44,35,42,39,37,15,12,11,30.24,29.92,16,5,16,0.00
2013-4-2,49,39,27,39,37,33,16,14,11,30.36,30.24,9,2,9,0.00
2013-4-3,53,42,30,39,37,32,15,13,11,30.39,30.24,12,2,13,0.00
2013-4-4,61,47,34,39,37,33,15,12,9,30.24,30.04,11,2,12,0.00
2013-4-5,68,51,32,40,37,32,19,12,8,30.18,30.04,9,2,11,0.00
2013-4-6,74,63,50,40,38,36,11,10,8,30.04,29.74,17,6,17,0.00
2013-4-7,78,67,50,50,43,38,13,9,8,29.92,29.83,13,3,17,0.00
2013-4-8,77,70,62,52,49,46,13,9,8,29.89,29.74,12,5,13,0.00
2013-4-9,78,71,64,56,53,50,11,9,8,29.92,29.83,15,4,16,0.00
2013-4-10,85,73,61,62,57,54,47,15,6,29.83,29.59,15,3,17,1.37
2013-4-11,62,49,41,56,48,44,52,24,11,29.77,29.65,11,4,11,0.04
2013-4-12,48,43,38,45,43,40,14,13,12,30.04,29.74,13,4,13,0.00
2013-4-13,64,50,32,45,42,36,30,12,8,30.09,29.92,11,2,11,0.00
2013-4-14,78,64,49,49,44,40,11,10,8,29.92,29.62,17,5,19,0.00
2013-4-15,73,64,54,50,47,45,33,14,9,29.89,29.74,11,3,12,0.00
2013-4-16,55,49,47,49,46,44,53,40,24,30.15,29.89,15,5,15,1.50
2013-4-17,86,65,50,55,46,43,58,25,6,30.12,29.71,13,3,13,0.00
2013-4-18,76,60,43,55,54,51,70,31,8,29.80,29.59,15,4,15,4.44
2013-4-19,54,44,36,54,50,47,14,12,10,30.06,29.77,15,5,17,0.00
2013-4-20,58,45,30,52,49,43,32,14,9,30.33,30.06,8,2,10,0.00
2013-4-21,64,53,42,51,49,44,13,11,8,30.42,30.24,13,4,13,0.00
2013-4-22,72,60,39,50,46,41,15,10,8,30.27,29.98,14,3,15,0.00
2013-4-23,62,53,41,51,48,44,49,30,9,30.04,29.86,13,2,13,1.57
2013-4-24,57,45,37,50,48,44,49,23,9,30.27,30.01,14,4,16,0.29
2013-4-25,67,51,34,48,45,42,35,15,8,30.36,30.24,10,2,11,0.00
2013-4-26,60,54,48,48,46,44,27,12,9,30.39,30.27,10,2,10,0.00
2013-4-27,56,53,50,48,47,44,56,43,27,30.30,29.92,8,1,8,0.33
2013-4-28,59,55,47,50,48,46,73,40,12,29.98,29.89,9,1,9,0.00
2013-4-29,79,63,44,56,51,46,48,21,7,29.95,29.80,14,2,14,0.00
2013-4-30,87,74,60,56,53,50,26,12,6,29.95,29.80,15,2,15,0.00
2013-5-1,84,70,53,56,51,49,39,15,6,30.09,29.95,12,2,12,0.00
2013-5-2,74,61,47,54,51,49,41,26,8,30.15,30.06,12,3,12,0.83
2013-5-3,47,43,41,50,48,46,57,51,41,30.09,29.83,8,3,10,2.78
2013-5-4,56,46,40,49,47,44,61,33,10,30.01,29.86,9,1,9,0.04
2013-5-5,62,54,43,51,48,45,69,39,14,30.01,29.89,11,3,11,0.12
2013-5-6,68,61,53,52,50,48,42,22,10,29.98,29.92,13,3,14,0.00
2013-5-7,78,64,53,54,51,49,46,23,8,30.04,29.98,9,1,9,0.00
2013-5-8,84,67,50,54,51,48,46,21,6,30.06,29.98,7,0,7,0.00
2013-5-9,80,70,64,55,52,49,35,14,7,30.01,29.86,11,1,11,0.25
2013-5-10,70,63,57,55,52,50,44,21,9,30.01,29.83,11,3,13,0.12
2013-5-11,71,60,51,51,47,41,33,14,7,30.15,29.98,17,4,17,0.00
2013-5-12,64,53,37,46,44,39,16,11,8,30.24,30.15,12,2,13,0.00
2013-5-13,74,58,37,49,45,42,37,15,8,30.24,30.04,10,2,11,0.00
2013-5-14,94,76,55,54,49,45,13,7,4,30.04,29.83,10,2,11,0.00
2013-5-15,92,79,67,54,50,47,10,7,4,29.98,29.83,8,2,8,0.00
2013-5-16,84,72,64,54,51,49,32,13,6,29.95,29.86,11,1,11,0.04
2013-5-17,80,71,63,54,50,47,33,15,7,29.98,29.92,11,2,11,0.00
2013-5-18,84,73,63,55,52,49,44,20,6,30.01,29.89,10,1,10,0.00
2013-5-19,91,80,70,56,52,49,24,11,5,29.92,29.71,13,3,15,0.00
2013-5-20,81,73,63,56,52,49,41,17,7,29.92,29.71,17,2,18,0.91
2013-5-21,82,70,63,57,53,51,46,24,7,29.83,29.71,11,1,11,0.17
2013-5-22,78,69,62,54,52,49,34,18,8,29.89,29.68,11,2,11,0.00
2013-5-23,68,62,56,51,50,47,31,15,10,30.21,29.89,11,3,14,0.00
2013-5-24,70,58,44,50,48,45,38,16,8,30.42,30.21,9,2,9,0.00
2013-5-25,71,61,46,50,47,44,32,13,9,30.36,30.12,11,1,11,0.04
2013-5-26,85,72,58,58,51,48,14,9,6,30.18,30.01,10,2,10,0.00
2013-5-27,85,73,66,54,50,48,41,15,6,30.04,29.77,16,2,16,0.58
2013-5-28,87,76,68,57,52,47,33,14,6,29.92,29.83,11,2,11,0.12
2013-5-29,88,79,68,57,53,50,24,9,5,29.98,29.83,12,2,12,0.00
2013-5-30,82,76,65,56,52,49,34,13,7,29.95,29.83,14,3,14,0.42
2013-5-31,80,72,64,57,54,50,45,23,7,29.95,29.74,17,2,17,2.87
2013-6-1,80,69,63,56,54,51,72,39,7,29.89,29.74,11,2,11,0.87
2013-6-2,70,65,57,54,53,50,15,11,10,30.04,29.89,9,2,9,0.00
2013-6-3,72,63,54,52,50,48,40,18,8,30.09,29.98,8,1,9,0.04
2013-6-4,75,65,52,54,51,47,36,14,8,30.09,30.01,8,1,9,0.00
2013-6-5,83,70,60,55,52,50,36,17,6,30.04,29.86,8,0,8,0.04
2013-6-6,81,72,66,55,52,49,34,15,7,29.89,29.83,9,2,10,0.00
2013-6-7,74,66,58,53,51,48,34,15,8,29.92,29.86,8,2,10,0.00
2013-6-8,82,69,54,53,51,48,46,19,7,29.98,29.92,8,1,8,0.00
2013-6-9,80,69,60,54,51,48,35,14,7,29.98,29.80,12,1,13,0.04
2013-6-10,82,70,63,56,52,49,48,22,7,29.92,29.80,8,1,8,0.08
2013-6-11,94,78,60,56,52,49,48,18,4,29.98,29.86,8,1,8,0.00
2013-6-12,96,85,70,56,53,50,35,10,4,29.98,29.77,11,1,12,0.00
2013-6-13,85,77,65,55,52,49,14,8,6,30.01,29.77,12,3,13,0.00
2013-6-14,85,73,59,55,52,50,34,11,6,30.09,29.95,10,1,10,0.00
2013-6-15,91,77,66,54,52,49,36,12,5,30.09,29.95,9,1,10,0.37
2013-6-16,88,76,68,54,52,49,53,28,6,30.06,29.92,6,0,6,0.17
2013-6-17,86,74,66,56,52,49,48,31,6,29.98,29.86,11,1,11,1.45
2013-6-18,90,75,62,57,53,49,66,28,5,29.98,29.92,8,1,8,0.00
2013-6-19,86,74,63,57,52,49,47,18,6,30.06,29.98,8,1,8,0.00
2013-6-20,92,80,66,55,52,48,39,14,4,30.12,30.04,8,1,8,0.09
2013-6-21,93,82,70,56,52,48,36,12,4,30.12,30.01,9,2,9,0.00
2013-6-22,92,76,68,55,51,49,37,19,4,30.12,30.01,11,1,14,1.66
2013-6-23,91,75,66,55,52,49,45,25,5,30.09,29.95,15,2,15,0.87
2013-6-24,94,80,67,57,54,50,67,27,4,30.09,29.95,6,1,6,0.00
2013-6-25,95,84,74,57,53,50,30,11,4,29.98,29.80,8,2,8,0.00
2013-6-26,94,80,74,57,53,50,41,21,4,29.89,29.74,9,1,11,0.79
2013-6-27,94,82,71,56,53,49,53,21,4,29.89,29.77,12,1,12,0.00
2013-6-28,89,80,69,55,52,50,36,16,5,29.86,29.71,15,2,15,0.00
2013-6-29,84,72,66,54,50,47,29,12,6,29.74,29.65,15,2,15,0.04
2013-6-30,77,69,66,54,50,46,37,19,8,29.92,29.74,22,4,22,0.25
2013-7-1,77,70,62,55,52,48,29,12,8,29.98,29.89,13,4,15,0.08
2013-7-2,68,64,62,53,51,48,52,35,10,30.06,29.95,10,3,10,1.12
2013-7-3,85,71,61,56,52,50,62,25,6,30.09,30.01,6,0,7,0.00
2013-7-4,85,73,60,54,52,48,40,15,6,30.09,30.01,8,1,8,0.00
2013-7-5,84,74,65,54,52,49,48,19,6,30.09,30.01,9,1,11,0.00
2013-7-6,88,76,67,55,51,48,42,18,5,30.06,29.98,10,1,10,0.00
2013-7-7,93,79,66,56,52,49,35,15,4,30.06,30.01,7,1,8,0.00
2013-7-8,94,81,69,56,53,50,36,13,4,30.12,30.01,10,1,10,0.00
2013-7-9,96,85,74,56,53,49,31,11,4,30.06,29.95,6,1,6,0.00
2013-7-10,88,79,73,56,52,50,37,20,5,30.01,29.89,9,1,9,0.29
2013-7-11,83,74,65,55,52,50,28,13,6,30.06,29.98,10,2,11,0.00
2013-7-12,85,72,61,54,51,49,38,16,6,30.12,30.04,9,1,10,0.00
2013-7-13,86,74,62,53,50,48,28,11,6,30.12,30.04,9,1,10,0.00
2013-7-14,89,76,64,54,51,48,37,17,5,30.15,30.06,11,1,11,0.08
2013-7-15,90,80,71,55,52,49,50,22,5,30.24,30.15,11,1,11,0.00
2013-7-16,93,83,73,57,52,49,37,16,4,30.30,30.21,8,1,9,0.00
2013-7-17,95,83,72,55,52,48,42,18,4,30.33,30.18,5,0,5,0.00
2013-7-18,98,85,73,56,52,48,49,18,3,30.21,30.04,6,0,6,0.00
2013-7-19,96,84,73,56,53,50,33,14,4,30.04,29.89,6,1,6,0.00
2013-7-20,94,80,70,55,52,48,44,20,4,29.95,29.83,11,1,20,2.79
2013-7-21,84,76,70,54,51,49,66,37,6,29.95,29.86,9,0,9,0.00
2013-7-22,94,80,70,57,53,49,50,24,4,29.89,29.77,8,0,8,0.00
2013-7-23,92,81,73,55,52,48,37,16,4,29.92,29.77,9,2,11,0.00
2013-7-24,79,72,62,53,51,48,15,9,7,30.04,29.89,10,3,10,0.00
2013-7-25,82,70,58,54,50,47,39,16,7,30.12,30.04,9,1,10,0.00
2013-7-26,74,70,64,52,50,48,33,20,8,30.09,29.95,4,0,6,0.08
2013-7-27,77,69,57,52,50,46,40,17,8,30.01,29.95,11,2,11,0.00
2013-7-28,83,67,52,51,49,46,42,19,6,30.06,30.01,8,1,8,0.00
2013-7-29,76,68,57,52,50,48,44,21,8,30.18,30.06,6,0,9,0.00
2013-7-30,75,71,67,53,51,50,47,32,12,30.15,30.01,8,2,9,0.29
2013-7-31,83,74,66,57,54,52,71,38,6,30.06,29.98,9,1,10,0.00
2013-8-1,88,74,62,60,57,53,48,21,5,30.09,30.01,6,1,8,0.00
2013-8-2,86,74,64,59,56,54,41,24,6,30.01,29.92,8,0,8,0.17
2013-8-3,85,76,68,61,58,55,66,26,6,30.12,29.95,11,2,11,0.00
2013-8-4,80,72,63,60,57,55,36,16,7,30.18,30.09,8,0,8,0.00
2013-8-5,74,70,65,57,55,53,38,20,9,30.09,29.92,11,2,11,0.00
2013-8-6,90,78,70,59,54,51,60,28,5,29.95,29.86,8,1,8,0.00
2013-8-7,89,78,72,56,52,49,43,24,5,29.95,29.83,8,1,8,0.00
2013-8-8,84,76,70,56,53,49,59,29,7,29.98,29.89,6,0,8,0.00
2013-8-9,83,74,69,56,53,50,62,27,6,30.06,29.95,7,0,7,0.00
2013-8-10,86,76,67,55,52,50,36,17,6,30.15,30.06,9,1,9,0.00
2013-8-11,86,74,60,54,51,48,37,15,6,30.15,30.04,6,1,8,0.37
2013-8-12,82,74,68,54,52,49,38,21,8,30.09,29.92,8,0,8,0.09
2013-8-13,81,71,64,55,52,50,57,24,7,30.12,29.95,11,2,11,0.00
2013-8-14,75,64,52,53,50,48,37,15,8,30.21,30.12,11,1,11,0.00
2013-8-15,76,64,54,51,49,47,40,19,8,30.18,30.06,8,1,8,0.00
2013-8-16,76,65,54,52,50,47,37,17,8,30.15,30.09,9,1,9,0.00
2013-8-17,82,69,57,53,51,48,40,19,7,30.18,30.09,9,1,9,0.29
2013-8-18,83,72,64,53,50,47,40,22,6,30.18,30.06,8,0,8,0.25
2013-8-19,87,74,62,54,51,48,48,21,6,30.15,30.04,8,0,8,0.00
2013-8-20,89,76,64,54,51,48,43,18,5,30.12,30.04,8,0,8,0.00
2013-8-21,92,78,65,55,51,49,43,18,4,30.15,30.04,7,1,7,0.00
2013-8-22,93,80,68,55,51,48,43,18,4,30.12,30.01,6,1,8,0.00
2013-8-23,89,79,71,54,51,48,46,20,5,30.12,30.04,9,1,9,0.67
2013-8-24,91,79,66,53,51,49,39,15,5,30.21,30.09,8,1,8,0.00
2013-8-25,94,80,64,54,52,49,37,13,4,30.27,30.15,8,1,8,0.00
2013-8-26,96,82,71,55,52,48,43,17,4,30.24,30.06,6,1,6,0.00
2013-8-27,96,82,71,55,52,49,38,14,4,30.09,29.98,6,1,8,0.00
2013-8-28,97,81,67,56,52,49,43,18,3,30.06,29.98,7,1,8,0.00
2013-8-29,99,83,69,55,52,49,41,16,3,30.04,29.95,8,1,8,0.46
2013-8-30,100,84,70,55,52,48,42,17,3,29.98,29.86,8,1,8,0.00
2013-8-31,102,87,74,55,52,49,36,11,2,29.86,29.74,9,1,9,0.00
2013-9-1,94,82,74,54,51,49,31,12,4,29.86,29.77,11,1,11,0.00
2013-9-2,86,76,64,54,51,48,32,10,6,29.98,29.86,11,2,11,0.00
2013-9-3,83,70,56,54,51,48,35,14,6,30.09,29.98,8,1,8,0.00
2013-9-4,88,72,57,53,50,48,37,16,5,30.15,30.06,6,0,6,0.00
2013-9-5,89,72,58,52,50,48,38,17,5,30.21,30.12,9,0,9,0.54
2013-9-6,90,76,63,54,51,48,40,17,5,30.18,30.04,8,1,8,0.00
2013-9-7,95,78,62,54,50,46,40,16,4,30.06,29.92,8,1,8,0.00
2013-9-8,84,76,72,54,50,48,43,19,6,30.04,29.92,8,1,9,0.25
2013-9-9,100,84,72,56,52,49,42,17,3,29.98,29.92,6,0,6,0.00
2013-9-10,100,83,70,55,52,48,39,14,3,30.09,29.98,6,1,10,0.00
2013-9-11,98,82,68,56,51,47,38,14,3,30.15,30.04,6,0,6,0.17
2013-9-12,86,78,69,53,51,49,34,12,6,30.09,29.98,13,2,13,0.04
2013-9-13,76,66,56,51,48,45,19,10,8,30.12,30.06,13,2,13,0.00
2013-9-14,77,63,48,45,44,42,28,11,8,30.18,30.04,8,1,8,0.00
2013-9-15,84,68,51,51,46,41,26,10,6,30.09,30.01,9,1,9,0.00
2013-9-16,72,66,61,52,49,46,31,17,9,30.27,30.09,9,3,11,0.00
2013-9-17,75,66,60,55,50,48,25,16,8,30.24,30.06,8,1,8,0.00
2013-9-18,90,74,67,54,51,48,44,24,5,30.09,29.98,8,1,8,0.41
2013-9-19,92,80,72,56,52,48,36,16,4,30.01,29.86,8,1,8,0.13
2013-9-20,79,70,62,53,51,49,43,31,10,29.95,29.86,8,0,8,0.29
2013-9-21,72,61,50,53,50,47,40,19,8,29.98,29.92,11,2,11,0.00
2013-9-22,76,61,47,50,48,46,48,22,8,30.04,29.92,8,0,8,0.00
2013-9-23,77,64,49,51,47,44,36,14,8,30.04,29.92,13,2,13,0.00
2013-9-24,84,69,53,54,49,46,35,14,6,29.98,29.80,10,2,11,0.00
2013-9-25,83,71,63,54,51,49,48,23,6,29.89,29.80,8,1,8,0.00
2013-9-26,86,72,59,54,51,48,49,21,6,30.01,29.89,8,1,8,0.00
2013-9-27,85,72,58,54,50,48,39,14,6,30.12,30.01,11,1,11,0.00
2013-9-28,86,73,59,53,50,47,22,9,6,30.06,29.95,13,2,13,0.37
2013-9-29,74,65,54,51,50,47,45,22,8,30.06,29.98,10,2,10,0.17
2013-9-30,80,65,51,52,49,46,52,27,7,30.01,29.89,8,1,8,0.00
2013-10-1,82,71,63,55,51,48,50,29,7,30.04,29.95,6,0,6,0.00
2013-10-2,86,74,67,56,51,48,54,29,6,30.06,29.98,4,0,8,0.00
2013-10-3,88,77,68,56,52,49,36,17,6,30.01,29.89,8,2,9,0.00
2013-10-4,88,77,68,57,52,50,43,19,5,30.01,29.92,9,1,9,0.00
2013-10-5,79,71,56,54,52,48,40,22,7,29.95,29.83,8,1,9,0.04
2013-10-6,60,55,50,52,50,46,31,16,9,29.92,29.86,11,2,11,0.00
2013-10-7,69,57,49,51,48,46,29,13,8,30.15,29.92,9,2,10,0.17
2013-10-8,75,58,44,53,49,46,42,21,8,30.21,30.12,11,1,11,0.04
2013-10-9,76,61,43,52,49,46,37,15,8,30.18,30.09,6,0,8,0.00
2013-10-10,81,65,52,56,50,47,43,20,7,30.15,30.01,6,0,8,0.00
2013-10-11,82,65,52,55,50,48,45,22,7,30.06,29.92,10,1,13,1.12
2013-10-12,76,66,51,53,50,48,40,20,8,30.21,29.95,8,1,9,0.46
2013-10-13,73,58,44,50,46,42,36,15,8,30.39,30.21,11,1,11,0.00
2013-10-14,68,58,46,49,45,42,12,10,8,30.33,30.06,8,1,8,0.00
2013-10-15,69,64,57,50,48,47,45,27,11,30.06,29.92,11,1,11,0.91
2013-10-16,62,53,45,50,48,46,29,13,9,30.06,29.98,9,2,9,0.00
2013-10-17,65,52,44,48,46,45,39,23,8,30.01,29.92,10,1,10,0.04
2013-10-18,64,51,41,49,46,43,39,20,8,30.06,29.95,8,1,8,0.00
2013-10-19,59,48,42,48,46,44,39,21,9,30.04,29.95,9,2,10,0.29
2013-10-20,71,56,39,47,44,41,28,12,8,29.98,29.86,11,2,11,0.00
2013-10-21,58,51,36,46,45,43,17,11,9,30.06,29.95,11,1,11,0.00
2013-10-22,61,46,33,46,43,40,38,19,9,30.06,29.80,13,2,13,0.04
2013-10-23,51,44,38,44,42,41,29,14,11,30.15,30.01,12,3,12,0.00
2013-10-24,51,41,29,43,41,39,32,16,11,30.42,30.12,13,3,13,0.00
2013-10-25,56,40,24,43,40,35,33,16,10,30.51,30.21,6,1,6,0.00
2013-10-26,66,51,37,46,42,38,14,11,8,30.21,30.01,10,2,10,0.00
2013-10-27,61,43,28,44,41,37,30,14,9,30.15,30.04,6,0,6,0.00
2013-10-28,69,50,32,45,41,37,33,16,8,30.24,30.06,8,1,8,0.00
2013-10-29,59,55,50,45,42,40,45,25,10,30.24,30.06,11,2,11,0.37
2013-10-30,74,66,57,50,47,44,66,36,9,30.06,29.86,8,1,8,0.04
2013-10-31,66,65,64,50,49,49,39,37,33,29.86,29.62,8,2,8,0.04
2013-11-1,53,52,50,48,48,48,45,45,44,29.86,29.86,6,1,6,0.00
2013-11-2,56,47,36,48,45,43,45,43,42,30.18,29.86,11,2,11,0.00
2013-11-3,59,46,30,47,44,39,44,41,38,30.30,30.15,11,2,11,0.00
2013-11-4,60,53,47,47,44,42,44,42,40,30.24,30.12,11,3,11,0.00
2013-11-5,62,56,51,47,45,44,45,43,42,30.27,30.04,11,2,11,0.25
2013-11-6,61,50,36,47,46,45,46,44,42,30.27,29.92,14,3,14,0.46
2013-11-7,58,41,29,46,43,39,43,41,38,30.39,30.27,9,1,9,0.00
2013-11-8,60,45,28,45,42,37,43,40,36,30.36,30.12,10,2,11,0.00
2013-11-9,68,53,40,46,44,40,43,41,39,30.24,30.06,11,2,11,0.00
2013-11-10,56,45,35,45,43,39,42,40,38,30.42,30.24,11,1,11,0.00
2013-11-11,69,47,34,44,41,37,40,38,36,30.48,30.09,17,3,17,0.00
2013-11-12,36,30,20,43,39,36,38,36,33,30.77,30.48,17,5,17,0.00
2013-11-13,49,32,17,41,37,32,35,34,33,30.69,30.33,9,2,9,0.00
2013-11-14,61,44,24,41,38,33,35,34,34,30.33,30.06,11,3,13,0.00
2013-11-15,58,51,47,41,39,36,35,35,34,30.06,29.95,10,2,10,0.00
2013-11-16,67,59,48,46,41,38,42,37,35,29.95,29.65,17,4,17,0.29
2013-11-17,78,67,51,50,47,43,45,42,34,29.98,29.42,20,5,20,0.04
2013-11-18,57,44,31,46,42,39,41,39,36,30.30,29.98,13,2,14,0.00
2013-11-19,50,38,28,40,38,34,36,35,34,30.36,30.21,8,1,8,0.00
2013-11-20,50,41,29,42,39,35,36,34,34,30.21,30.04,11,2,11,0.04
2013-11-21,51,50,48,43,40,38,38,36,35,30.18,30.06,8,0,8,0.46
2013-11-22,51,41,36,42,40,39,38,36,35,30.51,30.18,12,5,12,0.00
2013-11-23,36,30,20,40,38,35,36,34,32,30.71,30.51,17,6,17,0.00
2013-11-24,32,23,13,38,36,30,34,33,31,30.74,30.45,8,2,8,0.00
2013-11-25,36,33,28,39,36,32,33,32,31,30.45,30.15,10,2,10,0.00
2013-11-26,44,34,24,38,36,33,33,32,30,30.24,30.06,16,4,16,0.00
2013-11-27,31,23,17,38,34,28,33,31,29,30.36,30.24,15,4,15,0.00
2013-11-28,50,32,20,39,36,30,34,33,31,30.48,30.24,10,2,10,0.00
2013-11-29,47,34,19,39,37,34,33,33,32,30.60,30.36,8,2,8,0.00
2013-11-30,61,43,24,42,38,32,36,34,32,30.36,30.09,9,2,10,0.00
2013-12-1,61,44,31,41,38,35,36,34,33,30.12,29.89,6,0,6,0.00
2013-12-2,60,47,34,42,39,35,37,35,33,29.89,29.68,6,1,6,0.00
2013-12-3,60,52,43,43,40,37,38,36,34,29.71,29.65,10,1,10,0.00
2013-12-4,68,56,44,46,42,39,41,38,37,29.86,29.53,14,3,14,0.00
2013-12-5,44,29,22,43,39,37,39,36,33,30.30,29.86,11,4,12,0.00
2013-12-6,23,21,17,39,37,32,34,32,30,30.57,30.27,12,6,13,0.00
2013-12-7,23,17,8,36,34,29,31,29,28,30.69,30.45,10,3,11,0.00
2013-12-8,29,24,20,38,35,28,32,30,29,30.45,30.01,9,2,10,0.00
2013-12-9,30,26,23,38,35,30,33,30,29,30.33,30.09,11,3,13,0.00
2013-12-10,39,25,17,39,36,30,33,33,32,30.30,30.24,9,2,9,0.00
2013-12-11,34,22,10,39,35,28,33,32,30,30.66,30.27,15,3,15,0.00
2013-12-12,37,23,6,39,35,28,33,32,30,30.66,30.27,8,2,8,0.00
2013-12-13,35,29,16,40,37,30,34,33,32,30.27,29.95,11,1,11,0.29
2013-12-14,35,33,28,39,37,34,33,32,32,30.12,29.83,13,3,13,0.33
2013-12-15,38,30,25,39,36,31,33,33,32,30.21,30.04,10,2,12,0.04
2013-12-16,44,34,25,40,36,32,35,33,32,30.12,29.98,6,1,8,0.08
2013-12-17,46,34,26,39,37,33,34,33,32,30.27,30.09,10,2,10,0.00
2013-12-18,52,38,20,40,37,31,34,33,32,30.27,29.95,13,3,13,0.00
2013-12-19,62,52,42,41,38,35,36,34,32,29.95,29.80,13,3,13,0.00
2013-12-20,70,58,41,46,42,39,43,38,36,29.86,29.68,13,5,13,0.29
2013-12-21,37,35,34,40,39,36,38,35,34,29.83,29.56,10,4,11,1.24
2013-12-22,36,34,29,40,38,35,35,34,33,30.27,29.62,11,3,11,0.04
2013-12-23,30,24,13,39,37,33,34,34,32,30.57,30.24,12,4,12,0.00
2013-12-24,25,17,8,40,36,32,34,32,30,30.63,30.33,11,3,11,0.00
2013-12-25,38,32,22,39,37,32,34,33,32,30.36,30.21,8,2,8,0.00
2013-12-26,52,36,21,40,38,33,35,34,33,30.36,30.24,9,2,9,0.00
2013-12-27,57,39,23,44,38,33,42,34,33,30.36,30.24,8,1,8,0.00
2013-12-28,59,42,27,40,38,33,36,34,33,30.24,29.89,10,2,10,0.00
2013-12-29,44,31,19,40,38,34,34,33,32,30.24,29.83,13,4,13,0.00
2013-12-30,29,21,11,39,36,29,34,33,32,30.36,30.21,8,2,8,0.00
2013-12-31,45,34,23,39,36,30,33,33,32,30.39,30.15,11,2,11,0.00
2014-1-1,49,36,25,40,38,33,34,33,32,30.15,30.01,12,3,12,0.00
2014-1-2,26,19,11,38,36,29,34,33,30,30.48,30.04,15,6,15,0.00